createdAt,value
2022-07-28T00:01:38.253Z,50.90
2022-07-28T00:04:25.278Z,50.90
2022-07-28T00:07:11.996Z,50.98
2022-07-28T00:10:00.550Z,50.86
2022-07-28T00:12:47.235Z,51.33
2022-07-28T00:15:33.206Z,51.41
2022-07-28T00:18:19.091Z,51.04
2022-07-28T00:21:05.056Z,51.23
2022-07-28T00:23:50.842Z,51.39
2022-07-28T00:26:36.671Z,51.11
2022-07-28T00:29:22.463Z,51.26
2022-07-28T00:32:08.660Z,51.34
2022-07-28T00:34:54.772Z,51.24
2022-07-28T00:37:40.755Z,51.28
2022-07-28T00:40:46.886Z,51.48
2022-07-28T00:43:32.939Z,51.70
2022-07-28T00:46:21.513Z,51.34
2022-07-28T00:49:07.692Z,51.49
2022-07-28T00:51:53.626Z,51.64
2022-07-28T00:54:39.560Z,51.82
2022-07-28T00:57:25.434Z,51.96
2022-07-28T01:00:11.768Z,51.89
2022-07-28T01:02:58.117Z,51.74
2022-07-28T01:05:49.204Z,52.07
2022-07-28T01:09:29.730Z,52.26
2022-07-28T01:12:35.124Z,52.31
2022-07-28T01:15:44.734Z,52.41
2022-07-28T01:18:36.948Z,52.44
2022-07-28T01:21:27.264Z,52.35
2022-07-28T01:24:34.054Z,52.55
2022-07-28T01:27:49.507Z,52.45
2022-07-28T01:30:40.203Z,52.27
2022-07-28T01:33:35.533Z,52.45
2022-07-28T01:36:23.556Z,52.69
2022-07-28T01:39:10.578Z,52.78
2022-07-28T01:41:57.067Z,52.76
2022-07-28T01:44:45.522Z,52.95
2022-07-28T01:47:32.702Z,53.05
2022-07-28T01:50:20.832Z,52.99
2022-07-28T01:53:10.734Z,53.08
2022-07-28T01:55:57.213Z,53.20
2022-07-28T01:58:44.736Z,52.99
2022-07-28T02:01:32.524Z,53.16
2022-07-28T02:04:20.443Z,53.49
2022-07-28T02:07:08.371Z,53.27
2022-07-28T02:09:55.293Z,53.61
2022-07-28T02:12:42.104Z,53.62
2022-07-28T02:15:29.040Z,53.58
2022-07-28T02:18:15.373Z,53.76
2022-07-28T02:21:01.810Z,53.73
2022-07-28T02:23:48.735Z,53.66
2022-07-28T02:26:37.202Z,53.83
2022-07-28T02:29:49.137Z,54.05
2022-07-28T02:32:36.936Z,53.72
2022-07-28T02:35:27.923Z,53.93
2022-07-28T02:38:22.075Z,53.90
2022-07-28T02:41:29.179Z,53.97
2022-07-28T02:44:18.705Z,53.83
2022-07-28T02:47:09.002Z,54.02
2022-07-28T02:49:55.918Z,54.07
2022-07-28T02:52:42.981Z,54.29
2022-07-28T02:55:30.758Z,54.16
2022-07-28T02:58:21.152Z,54.10
2022-07-28T03:01:07.373Z,54.17
2022-07-28T03:03:55.563Z,54.29
2022-07-28T03:06:42.177Z,54.32
2022-07-28T03:09:28.946Z,54.31
2022-07-28T03:12:15.151Z,54.64
2022-07-28T03:15:01.074Z,54.39
2022-07-28T03:17:47.047Z,54.48
2022-07-28T03:20:33.275Z,54.43
2022-07-28T03:23:20.026Z,54.51
2022-07-28T03:26:11.326Z,54.60
2022-07-28T03:28:58.164Z,54.64
2022-07-28T03:31:45.361Z,54.63
2022-07-28T03:34:31.398Z,54.96
2022-07-28T03:37:24.338Z,54.65
2022-07-28T03:40:11.553Z,54.83
2022-07-28T03:42:58.430Z,55.23
2022-07-28T03:45:46.826Z,55.12
2022-07-28T03:48:34.866Z,55.08
2022-07-28T03:51:21.225Z,55.02
2022-07-28T03:54:07.234Z,55.06
2022-07-28T03:56:53.151Z,55.25
2022-07-28T03:59:39.000Z,55.11
2022-07-28T04:02:25.064Z,55.31
2022-07-28T04:05:16.874Z,55.39
2022-07-28T04:08:02.837Z,55.81
2022-07-28T04:10:49.536Z,55.55
2022-07-28T04:13:37.233Z,55.47
2022-07-28T04:16:24.328Z,57.46
2022-07-28T04:19:10.245Z,55.93
2022-07-28T04:21:56.160Z,55.88
2022-07-28T04:24:42.035Z,55.83
2022-07-28T04:27:28.315Z,56.49
2022-07-28T04:30:18.655Z,56.14
2022-07-28T04:33:04.516Z,56.11
2022-07-28T04:35:52.638Z,55.80
2022-07-28T04:38:39.013Z,55.74
2022-07-28T04:41:27.058Z,55.75
2022-07-28T04:44:13.164Z,55.86
2022-07-28T04:46:59.471Z,55.69
2022-07-28T04:49:45.404Z,55.90
2022-07-28T04:52:31.730Z,56.19
2022-07-28T04:55:18.437Z,55.97
2022-07-28T04:58:04.426Z,55.81
2022-07-28T05:00:53.128Z,55.80
2022-07-28T05:03:39.431Z,55.86
2022-07-28T05:06:25.294Z,56.23
2022-07-28T05:09:11.209Z,56.13
2022-07-28T05:11:57.146Z,56.28
2022-07-28T05:14:42.988Z,56.28
2022-07-28T05:17:28.882Z,61.17
2022-07-28T05:20:14.773Z,57.72
2022-07-28T05:23:00.861Z,57.49
2022-07-28T05:25:46.834Z,57.29
2022-07-28T05:28:33.258Z,57.29
2022-07-28T05:31:19.901Z,57.30
2022-07-28T05:34:06.211Z,57.16
2022-07-28T05:36:52.137Z,57.08
2022-07-28T05:39:38.330Z,57.17
2022-07-28T05:42:26.602Z,57.16
2022-07-28T05:45:16.525Z,57.04
2022-07-28T05:48:03.063Z,56.83
2022-07-28T05:50:50.126Z,57.11
2022-07-28T05:53:36.227Z,56.97
2022-07-28T05:56:23.086Z,57.02
2022-07-28T05:59:10.273Z,57.11
2022-07-28T06:01:56.497Z,57.17
2022-07-28T06:04:42.221Z,56.97
2022-07-28T06:07:43.552Z,57.17
2022-07-28T06:10:48.752Z,57.27
2022-07-28T06:13:36.354Z,57.31
2022-07-28T06:16:23.562Z,57.42
2022-07-28T06:19:09.592Z,57.28
2022-07-28T06:21:55.406Z,57.35
2022-07-28T06:24:42.163Z,57.33
2022-07-28T06:27:27.929Z,57.45
2022-07-28T06:30:14.095Z,57.47
2022-07-28T06:33:00.126Z,57.65
2022-07-28T06:35:50.796Z,57.27
2022-07-28T06:38:37.313Z,57.53
2022-07-28T06:41:23.191Z,57.56
2022-07-28T06:44:09.418Z,57.55
2022-07-28T06:46:55.496Z,57.90
2022-07-28T06:49:41.396Z,57.55
2022-07-28T06:52:27.475Z,57.61
2022-07-28T11:25:19.208Z,54.89
2022-07-28T11:28:07.679Z,54.55
2022-07-28T11:30:55.052Z,53.64
2022-07-28T11:33:57.631Z,52.91
2022-07-28T11:36:59.189Z,51.18
2022-07-28T11:39:45.352Z,52.36
2022-07-28T11:42:33.804Z,51.85
2022-07-28T11:45:26.520Z,50.59
2022-07-28T11:48:26.348Z,50.45
2022-07-28T11:51:14.021Z,50.14
2022-07-28T11:54:00.031Z,49.71
2022-07-28T11:56:46.025Z,49.73
2022-07-28T12:00:02.342Z,49.50
2022-07-28T12:02:52.145Z,48.97
2022-07-28T12:05:42.064Z,48.70
2022-07-28T12:08:29.331Z,48.80
2022-07-28T12:11:15.690Z,48.14
2022-07-28T12:14:07.237Z,43.94
2022-07-28T12:16:53.677Z,47.58
2022-07-28T12:19:39.824Z,47.58
2022-07-28T12:22:25.936Z,47.18
2022-07-28T12:25:13.297Z,47.37
2022-07-28T12:28:14.652Z,40.99
2022-07-28T12:31:13.752Z,46.67
2022-07-28T12:34:00.302Z,46.59
2022-07-28T12:36:46.558Z,46.28
2022-07-28T12:39:36.928Z,46.38
2022-07-28T12:42:25.134Z,46.32
2022-07-28T12:45:12.407Z,46.13
2022-07-28T12:48:06.853Z,45.17
2022-07-28T12:50:53.179Z,45.40
2022-07-28T12:53:51.125Z,40.33
2022-07-28T12:56:53.503Z,44.99
2022-07-28T12:59:40.262Z,44.92
2022-07-28T13:02:37.295Z,44.77
2022-07-28T13:05:55.991Z,44.43
2022-07-28T13:08:45.112Z,44.37
2022-07-28T13:11:45.918Z,44.09
2022-07-28T13:14:44.427Z,43.52
2022-07-28T13:17:49.391Z,43.92
2022-07-28T13:20:49.347Z,43.53
2022-07-28T13:23:35.728Z,43.58
2022-07-28T13:26:21.904Z,43.58
2022-07-28T13:29:12.856Z,42.99
2022-07-28T13:31:59.578Z,42.97
2022-07-28T13:34:46.418Z,43.12
2022-07-28T13:37:32.295Z,42.66
2022-07-28T13:40:18.156Z,42.68
2022-07-28T13:43:04.912Z,42.45
2022-07-28T13:46:00.125Z,42.30
2022-07-28T13:48:58.103Z,42.24
2022-07-28T13:51:46.141Z,41.61
2022-07-28T13:54:32.320Z,41.78
2022-07-28T13:57:18.946Z,41.14
2022-07-28T14:00:08.999Z,41.29
2022-07-28T14:02:55.587Z,41.08
2022-07-28T14:05:41.768Z,40.98
2022-07-28T14:08:29.233Z,40.95
2022-07-28T14:11:15.533Z,40.99
2022-07-28T14:14:01.551Z,40.80
2022-07-28T14:16:48.190Z,40.98
2022-07-28T14:19:38.902Z,40.72
2022-07-28T14:22:26.009Z,40.77
2022-07-28T14:25:20.562Z,40.31
2022-07-28T14:28:09.085Z,40.36
2022-07-28T14:30:55.130Z,40.04
2022-07-28T14:33:46.404Z,39.41
2022-07-28T14:36:34.563Z,39.53
2022-07-28T14:39:20.665Z,39.20
2022-07-28T14:42:06.856Z,39.32
2022-07-28T14:44:53.220Z,39.16
2022-07-28T14:47:45.325Z,39.04
2022-07-28T14:50:32.006Z,39.49
2022-07-28T14:53:22.088Z,38.93
2022-07-28T14:56:13.345Z,39.11
2022-07-28T14:58:59.407Z,39.38
2022-07-28T15:01:48.649Z,39.40
2022-07-28T15:04:35.278Z,39.42
2022-07-28T15:07:21.533Z,39.27
2022-07-28T15:10:08.466Z,39.00
2022-07-28T15:12:54.359Z,39.53
2022-07-28T15:15:44.586Z,39.35
2022-07-28T15:18:31.340Z,39.70
2022-07-28T15:21:18.049Z,39.27
2022-07-28T15:24:04.617Z,39.33
2022-07-28T15:26:50.688Z,39.39
2022-07-28T15:29:37.611Z,38.84
2022-07-28T15:32:27.194Z,38.61
2022-07-28T15:35:14.526Z,38.33
2022-07-28T15:38:00.785Z,38.21
2022-07-28T15:40:48.235Z,38.20
2022-07-28T15:43:36.653Z,37.67
2022-07-28T15:46:22.664Z,37.18
2022-07-28T15:49:10.679Z,37.47
2022-07-28T15:51:57.904Z,37.21
2022-07-28T15:54:44.242Z,37.34
2022-07-28T15:57:38.038Z,37.07
2022-07-28T16:00:24.218Z,37.24
2022-07-28T16:03:11.567Z,36.95
2022-07-28T16:05:58.843Z,36.92
2022-07-28T16:08:45.495Z,37.23
2022-07-28T16:11:32.155Z,37.08
2022-07-28T16:14:18.599Z,37.13
2022-07-28T16:17:05.079Z,37.23
2022-07-28T16:19:52.294Z,37.39
2022-07-28T16:22:40.314Z,37.34
2022-07-28T16:25:26.713Z,37.50
2022-07-28T16:28:13.015Z,37.21
2022-07-28T16:30:59.328Z,37.18
2022-07-28T16:33:46.097Z,37.22
2022-07-28T16:36:32.066Z,37.21
2022-07-28T16:39:18.107Z,37.24
2022-07-28T16:42:05.636Z,37.55
2022-07-28T16:44:51.603Z,37.09
2022-07-28T16:47:37.303Z,37.10
2022-07-28T16:50:26.452Z,37.34
2022-07-28T16:53:13.972Z,37.29
2022-07-28T16:56:00.016Z,37.32
2022-07-28T16:58:47.262Z,37.32
2022-07-28T17:01:33.634Z,37.58
2022-07-28T17:04:20.585Z,37.30
2022-07-28T17:07:07.015Z,37.44
2022-07-28T17:09:53.018Z,37.44
2022-07-28T17:12:39.491Z,37.37
2022-07-28T17:15:25.806Z,37.21
2022-07-28T17:18:12.360Z,37.42
2022-07-28T17:20:58.426Z,37.40
2022-07-28T17:23:44.681Z,37.49
2022-07-28T17:29:39.906Z,37.52
2022-07-28T17:32:26.030Z,37.71
2022-07-28T17:35:34.562Z,37.55
2022-07-28T17:38:21.737Z,37.39
2022-07-28T17:41:09.190Z,37.52
2022-07-28T17:43:55.092Z,37.67
2022-07-28T17:46:41.388Z,37.84
2022-07-28T17:49:29.288Z,37.67
2022-07-28T17:52:15.302Z,37.44
2022-07-28T17:55:20.019Z,37.58
2022-07-28T17:58:28.118Z,37.53
2022-07-28T18:01:15.253Z,37.58
2022-07-28T18:04:01.637Z,37.76
2022-07-28T18:06:47.505Z,37.60
2022-07-28T18:09:33.468Z,37.60
2022-07-28T18:12:19.438Z,37.45
2022-07-28T18:15:05.669Z,37.51
2022-07-28T18:17:54.900Z,37.83
2022-07-28T18:20:42.769Z,37.79
2022-07-28T18:23:29.059Z,37.72
2022-07-28T18:26:15.536Z,37.90
2022-07-28T18:29:01.654Z,37.84
2022-07-28T18:31:48.160Z,37.62
2022-07-28T18:34:34.316Z,37.78
2022-07-28T18:37:20.598Z,38.00
2022-07-28T18:40:07.777Z,38.76
2022-07-28T18:42:53.996Z,38.34
2022-07-28T18:45:39.830Z,39.23
2022-07-28T18:48:26.500Z,38.62
2022-07-28T18:51:12.957Z,38.50
2022-07-28T18:53:59.025Z,42.27
2022-07-28T18:56:44.935Z,40.96
2022-07-28T18:59:32.535Z,42.29
2022-07-28T19:02:18.811Z,41.71
2022-07-28T19:05:06.562Z,46.18
2022-07-28T19:07:52.424Z,42.35
2022-07-28T19:10:38.285Z,42.83
2022-07-28T19:13:24.262Z,43.53
2022-07-28T19:16:10.342Z,42.87
2022-07-28T19:18:56.248Z,42.84
2022-07-28T19:21:43.445Z,42.99
2022-07-28T19:24:31.779Z,43.23
2022-07-28T19:27:19.192Z,43.24
2022-07-28T19:30:07.424Z,43.72
2022-07-28T19:32:53.685Z,43.20
2022-07-28T19:35:39.643Z,43.67
2022-07-28T19:38:26.231Z,43.90
2022-07-28T19:41:16.406Z,44.26
2022-07-28T19:44:02.706Z,44.24
2022-07-28T19:46:49.390Z,44.30
2022-07-28T19:49:35.551Z,44.74
2022-07-28T19:52:22.869Z,44.61
2022-07-28T19:55:09.977Z,44.99
2022-07-28T19:57:55.962Z,45.08
2022-07-28T20:00:42.324Z,45.21
2022-07-28T20:04:00.564Z,45.37
2022-07-28T20:06:34.832Z,45.37
2022-07-28T20:09:21.993Z,45.66
2022-07-28T20:12:08.869Z,45.94
2022-07-28T20:14:56.106Z,45.87
2022-07-28T20:17:42.178Z,46.28
2022-07-28T20:20:28.446Z,46.46
2022-07-28T20:23:15.134Z,46.09
2022-07-28T20:26:00.941Z,46.15
2022-07-28T20:28:48.182Z,46.42
2022-07-28T20:31:34.400Z,46.45
2022-07-28T20:34:21.117Z,46.55
2022-07-28T20:37:07.133Z,47.16
2022-07-28T20:40:12.966Z,47.08
2022-07-28T20:42:59.125Z,47.31
2022-07-28T20:45:45.749Z,47.33
2022-07-28T20:48:31.959Z,47.23
2022-07-28T20:51:18.190Z,47.56
2022-07-28T20:54:04.697Z,47.73
2022-07-28T20:56:50.938Z,47.95
2022-07-28T20:59:36.908Z,48.01
2022-07-28T21:02:24.514Z,48.22
2022-07-28T21:05:23.921Z,48.17
2022-07-28T21:08:16.989Z,48.13
2022-07-28T21:11:04.475Z,48.33
2022-07-28T21:13:50.514Z,48.52
2022-07-28T21:16:36.502Z,48.69
2022-07-28T21:19:22.471Z,48.72
2022-07-28T21:22:09.334Z,48.65
2022-07-28T21:24:55.950Z,48.67
2022-07-28T21:28:00.308Z,49.57
2022-07-28T21:30:48.581Z,49.22
2022-07-28T21:33:34.551Z,49.27
2022-07-28T21:36:20.658Z,49.36
2022-07-28T21:39:07.030Z,49.36
2022-07-28T21:41:52.938Z,49.26
2022-07-28T21:44:38.839Z,49.51
2022-07-28T21:47:24.724Z,49.52
2022-07-28T21:50:10.944Z,49.82
2022-07-28T21:52:56.967Z,49.65
2022-07-28T21:55:42.710Z,49.81
2022-07-28T21:58:29.002Z,50.13
2022-07-28T22:01:15.408Z,50.09
2022-07-28T22:04:01.474Z,50.39
2022-07-28T22:06:47.753Z,50.50
2022-07-28T22:09:37.848Z,50.35
2022-07-28T22:12:24.004Z,50.24
2022-07-28T22:15:10.354Z,50.29
2022-07-28T22:17:56.204Z,50.37
2022-07-28T22:20:42.221Z,50.56
2022-07-28T22:23:29.335Z,50.62
2022-07-28T22:26:15.890Z,50.73
2022-07-28T22:29:01.721Z,50.66
2022-07-28T22:31:47.761Z,50.77
2022-07-28T22:34:34.120Z,50.74
2022-07-28T22:37:20.261Z,50.73
2022-07-28T22:40:06.799Z,50.84
2022-07-28T22:42:52.780Z,50.85
2022-07-28T22:45:51.027Z,50.83
2022-07-28T22:48:37.615Z,50.68
2022-07-28T22:51:23.510Z,51.13
2022-07-28T22:54:09.463Z,50.87
2022-07-28T22:56:55.551Z,51.09
2022-07-28T22:59:42.172Z,51.16
2022-07-28T23:02:32.844Z,51.14
2022-07-28T23:05:19.657Z,51.32
2022-07-28T23:08:06.301Z,51.11
2022-07-28T23:10:52.909Z,51.10
2022-07-28T23:13:38.776Z,51.32
2022-07-28T23:16:24.711Z,51.48
2022-07-28T23:19:10.529Z,51.75
2022-07-28T23:21:56.487Z,51.77
2022-07-28T23:24:42.361Z,52.12
2022-07-28T23:27:28.238Z,52.05
2022-07-28T23:30:14.130Z,51.99
2022-07-28T23:32:59.954Z,52.02
2022-07-28T23:35:45.981Z,52.11
2022-07-28T23:38:31.879Z,52.31
2022-07-28T23:41:17.787Z,51.95
2022-07-28T23:44:03.700Z,52.00
2022-07-28T23:46:49.903Z,52.13
2022-07-28T23:49:35.699Z,52.11
2022-07-28T23:52:21.460Z,52.02
2022-07-28T23:55:08.237Z,52.10
2022-07-28T23:57:54.265Z,52.22
